LDSB/BWK METAR and TAF weather

Enter ICAO airport designator
Station Type Date Time Source
LDSB METAR 2022/06/28 14:00 UTC NOAA

LDSB 281400Z 21007KT 160V240 CAVOK 34/14 Q1016


Station Type Date Time Source
LDSB Decoded METAR 2022/06/28 14:00 UTC NOAA

Brac, Croatia (LDSB) 43-17-09N 016-40-47E
Jun 28, 2022 - 10:00 AM EDT / 2022.06.28 1400 UTC
Wind: from the SSW (210 degrees) at 8 MPH (7 KT) (direction variable):0
Visibility: greater than 7 mile(s):0
Temperature: 93 F (34 C)
Dew Point: 57 F (14 C)
Relative Humidity: 30%
Pressure (altimeter): 30.00 in. Hg (1016 hPa)
ob: LDSB 281400Z 21007KT 160V240 CAVOK 34/14 Q1016
cycle: 14

Station Type Date Time Source
LDSB TAF 2022/06/28 14:06 UTC NOAA

TAF
AMD TAF
AMD LDSB 281402Z 2814/2912 CNL

Example: see airport list